Time;durP1;ratioP1;P1;durP2;ratioP2;P2;SDS_P1;SDS_P2;PMS_P1;PMS_P2;Temp;Humidity;BMP_temperature;BMP_pressure;BME280_temperature;BME280_humidity;BME280_pressure;Samples;Min_cycle;Max_cycle;Signal;HPM_P1;HPM_P2
2023/01/03 00:00:58;;;;;;;;;;;;;;;10.88;69.20;101264.07;1745488;81;21758;-77
2023/01/03 00:03:25;;;;;;;;;;;;;;;10.84;69.16;101255.47;1746969;81;21072;-77
2023/01/03 00:05:51;;;;;;;;;;;;;;;10.79;69.07;101248.17;1716561;80;20229;-77
2023/01/03 00:08:17;;;;;;;;;;;;;;;10.75;69.13;101266.31;1746489;81;20205;-77
2023/01/03 00:10:43;;;;;;;;;;;;;;;10.72;69.13;101277.53;1746697;81;20193;-77
2023/01/03 00:13:09;;;;;;;;;;;;;;;10.70;69.08;101273.23;1743075;81;21108;-77
2023/01/03 00:15:37;;;;;;;;;;;;;;;10.66;69.04;101271.53;1746111;81;20219;-77
2023/01/03 00:18:03;;;;;;;;;;;;;;;10.63;69.10;101271.55;1746896;81;20185;-77
2023/01/03 00:20:29;;;;;;;;;;;;;;;10.58;69.08;101272.44;1747034;81;20221;-77
2023/01/03 00:22:56;;;;;;;;;;;;;;;10.55;69.09;101282.80;1745455;81;20240;-77
2023/01/03 00:25:22;;;;;;;;;;;;;;;10.55;69.05;101288.41;1755515;80;21895;-78
2023/01/03 00:27:48;;;;;;;;;;;;;;;10.53;69.08;101287.12;1747494;81;20361;-77
2023/01/03 00:30:14;;;;;;;;;;;;;;;10.48;69.02;101288.86;1747418;81;20181;-77
2023/01/03 00:32:40;;;;;;;;;;;;;;;10.45;69.04;101306.98;1746986;80;20205;-76
2023/01/03 00:35:07;;;;;;;;;;;;;;;10.40;69.02;101310.02;1747636;81;20194;-77
2023/01/03 00:37:33;;;;;;;;;;;;;;;10.37;69.05;101315.23;1746162;81;22500;-77
2023/01/03 00:39:59;;;;;;;;;;;;;;;10.33;69.05;101319.98;1745122;81;20182;-77
2023/01/03 00:42:26;;;;;;;;;;;;;;;10.32;69.08;101318.70;1747282;80;20198;-77
2023/01/03 00:44:52;;;;;;;;;;;;;;;10.30;69.07;101314.83;1746839;81;20195;-77
2023/01/03 00:47:18;;;;;;;;;;;;;;;10.28;69.11;101316.55;1747145;80;20189;-77
2023/01/03 00:49:44;;;;;;;;;;;;;;;10.27;69.08;101318.72;1747655;81;21103;-77
2023/01/03 00:52:10;;;;;;;;;;;;;;;10.24;69.08;101314.41;1747457;81;20251;-76
2023/01/03 00:54:36;;;;;;;;;;;;;;;10.21;69.05;101322.61;1747823;81;20179;-76
2023/01/03 00:57:03;;;;;;;;;;;;;;;10.15;69.06;101335.08;1747220;81;20217;-77
2023/01/03 00:59:29;;;;;;;;;;;;;;;10.12;69.08;101347.15;1747005;81;20174;-77
2023/01/03 01:01:56;;;;;;;;;;;;;;;10.09;69.09;101356.20;1747485;81;21075;-77
2023/01/03 01:04:25;;;;;;;;;;;;;;;10.07;69.13;101357.92;1747153;81;20541;-77
2023/01/03 01:06:53;;;;;;;;;;;;;;;10.05;69.13;101360.94;1747555;81;20162;-77
2023/01/03 01:09:22;;;;;;;;;;;;;;;10.03;69.14;101349.32;1747733;81;20210;-77
2023/01/03 01:11:49;;;;;;;;;;;;;;;9.99;69.17;101355.78;1747368;81;20189;-77
2023/01/03 01:14:20;;;;;;;;;;;;;;;9.97;69.17;101367.41;1747983;81;21620;-77
2023/01/03 01:16:55;;;;;;;;;;;;;;;9.94;69.15;101372.59;1742228;81;20225;-77
2023/01/03 01:19:28;;;;;;;;;;;;;;;9.91;69.17;101377.33;1747900;80;20200;-77
2023/01/03 01:21:55;;;;;;;;;;;;;;;9.88;69.13;101382.49;1748098;81;20536;-77
2023/01/03 01:24:22;;;;;;;;;;;;;;;9.88;69.21;101385.51;1721273;81;20326;-77
2023/01/03 01:26:48;;;;;;;;;;;;;;;9.88;69.20;101389.38;1740257;82;21735;-77
2023/01/03 01:29:15;;;;;;;;;;;;;;;9.85;69.18;101390.28;1742493;81;20699;-77
2023/01/03 01:31:42;;;;;;;;;;;;;;;9.84;69.21;101396.30;1743303;80;20239;-76
2023/01/03 01:34:08;;;;;;;;;;;;;;;9.83;69.22;101399.75;1744744;81;20155;-76
2023/01/03 01:36:36;;;;;;;;;;;;;;;9.81;69.23;101404.05;1744505;81;20197;-77
2023/01/03 01:39:06;;;;;;;;;;;;;;;9.83;69.29;101404.05;1743622;81;21104;-77
2023/01/03 01:44:44;;;;;;;;;;;;;;;9.86;69.29;101406.20;1742494;80;20198;-77
2023/01/03 01:47:14;;;;;;;;;;;;;;;9.88;69.31;101403.16;1743625;81;20202;-77
2023/01/03 01:49:42;;;;;;;;;;;;;;;9.90;69.32;101404.02;1743527;80;20580;-77
2023/01/03 01:52:08;;;;;;;;;;;;;;;9.92;69.34;101402.73;1744723;81;21065;-77
2023/01/03 01:54:35;;;;;;;;;;;;;;;9.92;69.37;101406.17;1743603;80;20195;-77
2023/01/03 01:57:01;;;;;;;;;;;;;;;9.92;69.39;101397.13;1743959;80;20202;-77
2023/01/03 01:59:27;;;;;;;;;;;;;;;9.92;69.40;101389.37;1701372;81;20217;-77
2023/01/03 02:01:54;;;;;;;;;;;;;;;9.91;69.40;101386.37;1743116;80;20205;-77
2023/01/03 02:04:26;;;;;;;;;;;;;;;9.91;69.43;101391.96;1743627;81;20983;-77
2023/01/03 02:06:53;;;;;;;;;;;;;;;9.89;69.50;101391.97;1743222;81;20259;-77
2023/01/03 02:09:19;;;;;;;;;;;;;;;9.88;69.48;101394.55;1743407;81;20494;-77
2023/01/03 02:14:58;;;;;;;;;;;;;;;9.79;69.54;101404.91;1742523;81;20356;-77
2023/01/03 02:17:52;;;;;;;;;;;;;;;9.75;69.56;101400.61;1736715;81;21161;-77
2023/01/03 02:20:25;;;;;;;;;;;;;;;9.72;69.60;101404.05;1744075;81;20320;-77
2023/01/03 02:23:17;;;;;;;;;;;;;;;9.71;69.62;101406.20;1741795;81;20190;-77
2023/01/03 02:25:58;;;;;;;;;;;;;;;9.69;69.62;101410.94;1743135;81;20202;-77
2023/01/03 02:28:40;;;;;;;;;;;;;;;9.63;69.64;101415.67;1733867;81;20180;-77
2023/01/03 02:31:13;;;;;;;;;;;;;;;9.59;69.65;101419.97;1728020;80;21118;-77
2023/01/03 02:33:52;;;;;;;;;;;;;;;9.52;69.62;101428.56;1739066;81;20346;-76
2023/01/03 02:36:38;;;;;;;;;;;;;;;9.43;69.67;101430.27;1743176;80;20174;-76
2023/01/03 02:39:25;;;;;;;;;;;;;;;9.36;69.74;101438.89;1743248;81;20446;-76
2023/01/03 02:44:48;;;;;;;;;;;;;;;9.24;69.84;101436.70;1742766;82;20988;-77
2023/01/03 02:47:14;;;;;;;;;;;;;;;9.22;69.89;101443.59;1740828;81;20490;-77
2023/01/03 02:49:46;;;;;;;;;;;;;;;9.18;69.92;101452.60;1743940;80;20494;-77
2023/01/03 02:52:15;;;;;;;;;;;;;;;9.15;69.92;101457.75;1740053;81;20189;-77
2023/01/03 02:54:48;;;;;;;;;;;;;;;9.13;69.95;101451.73;1743587;82;20186;-77
2023/01/03 02:57:20;;;;;;;;;;;;;;;9.11;69.99;101453.01;1744608;81;21067;-77
2023/01/03 02:59:56;;;;;;;;;;;;;;;9.09;70.03;101458.59;1742678;80;21083;-77
2023/01/03 03:02:25;;;;;;;;;;;;;;;9.07;70.12;101456.86;1743398;81;20191;-77
2023/01/03 03:04:54;;;;;;;;;;;;;;;9.02;70.10;101471.03;1743533;80;20213;-77
2023/01/03 03:07:23;;;;;;;;;;;;;;;9.01;70.16;101477.47;1743543;81;20202;-77
2023/01/03 03:15:23;;;;;;;;;;;;;;;9.03;70.28;101478.34;1742752;80;20329;-77
2023/01/03 03:17:51;;;;;;;;;;;;;;;9.04;70.32;101469.31;1716652;81;20308;-77
2023/01/03 03:25:54;;;;;;;;;;;;;;;9.07;70.34;101480.94;1745490;81;20189;-77
2023/01/03 03:28:35;;;;;;;;;;;;;;;9.09;70.41;101485.68;1747561;81;20190;-77
2023/01/03 03:31:11;;;;;;;;;;;;;;;9.09;70.39;101484.39;1746484;81;20181;-77
2023/01/03 03:33:53;;;;;;;;;;;;;;;9.06;70.36;101480.50;1746690;80;20240;-76
2023/01/03 03:36:38;;;;;;;;;;;;;;;9.02;70.34;101481.34;1738793;80;21929;-77
2023/01/03 03:39:06;;;;;;;;;;;;;;;9.00;70.32;101493.80;1745873;81;20443;-77
2023/01/03 03:47:28;;;;;;;;;;;;;;;8.98;70.37;101507.13;1747604;80;20214;-77
2023/01/03 03:49:56;;;;;;;;;;;;;;;8.93;70.39;101504.09;1747210;81;21037;-77
2023/01/03 03:52:27;;;;;;;;;;;;;;;8.91;70.38;101517.84;1747276;81;20201;-77
2023/01/03 03:55:06;;;;;;;;;;;;;;;8.89;70.45;101507.94;1743720;81;20288;-77
2023/01/03 03:57:39;;;;;;;;;;;;;;;8.86;70.47;101515.66;1729208;81;20510;-77
2023/01/03 04:00:09;;;;;;;;;;;;;;;8.86;70.55;101514.38;1751079;81;20181;-78
2023/01/03 04:02:36;;;;;;;;;;;;;;;8.84;70.61;101518.23;1751586;80;21139;-77
2023/01/03 04:05:06;;;;;;;;;;;;;;;8.84;70.62;101519.95;1752639;80;20478;-77
2023/01/03 04:07:33;;;;;;;;;;;;;;;8.82;70.65;101522.97;1752263;81;20361;-77
2023/01/03 04:10:00;;;;;;;;;;;;;;;8.82;70.70;101526.84;1749541;81;20217;-77
2023/01/03 04:12:26;;;;;;;;;;;;;;;8.82;70.76;101526.84;1745323;80;20679;-77
2023/01/03 04:14:52;;;;;;;;;;;;;;;8.81;70.73;101531.56;1751874;81;21103;-77
2023/01/03 04:17:18;;;;;;;;;;;;;;;8.81;70.76;101539.30;1751261;80;20202;-77
2023/01/03 04:19:44;;;;;;;;;;;;;;;8.80;70.87;101535.00;1752688;80;20173;-77
2023/01/03 04:22:10;;;;;;;;;;;;;;;8.81;70.84;101539.30;1753193;80;20537;-77
2023/01/03 04:24:36;;;;;;;;;;;;;;;8.82;70.87;101536.73;1752468;81;20804;-77
2023/01/03 04:27:03;;;;;;;;;;;;;;;8.82;70.92;101539.31;1746564;81;21129;-78
2023/01/03 04:29:29;;;;;;;;;;;;;;;8.85;70.90;101543.16;1742544;81;20209;-77
2023/01/03 04:31:55;;;;;;;;;;;;;;;8.87;70.98;101547.91;1739204;81;20466;-77
2023/01/03 04:34:21;;;;;;;;;;;;;;;8.89;71.01;101542.33;1746491;81;20501;-77
2023/01/03 04:36:47;;;;;;;;;;;;;;;8.92;71.04;101550.09;1745974;81;20209;-77
2023/01/03 04:39:14;;;;;;;;;;;;;;;8.97;71.06;101553.98;1745612;81;21761;-77
2023/01/03 04:41:40;;;;;;;;;;;;;;;8.98;71.06;101554.42;1745250;81;20177;-77
2023/01/03 04:44:06;;;;;;;;;;;;;;;9.02;71.08;101559.17;1746803;81;20221;-77
2023/01/03 04:46:34;;;;;;;;;;;;;;;9.03;71.01;101562.19;1745989;81;20233;-77
2023/01/03 04:49:01;;;;;;;;;;;;;;;9.03;71.04;101569.50;1745463;81;20270;-77
2023/01/03 04:51:27;;;;;;;;;;;;;;;9.02;71.03;101567.77;1746366;81;21593;-77
2023/01/03 04:53:54;;;;;;;;;;;;;;;9.03;70.96;101564.77;1747974;81;20525;-77
2023/01/03 04:56:26;;;;;;;;;;;;;;;9.02;70.99;101563.04;1746106;81;20206;-77
2023/01/03 04:58:52;;;;;;;;;;;;;;;8.99;70.99;101571.63;1743960;80;20275;-77
2023/01/03 05:01:19;;;;;;;;;;;;;;;8.99;71.03;101581.94;1746101;81;20190;-78
2023/01/03 05:03:45;;;;;;;;;;;;;;;8.99;71.03;101583.66;1754011;80;22138;-76
2023/01/03 05:06:11;;;;;;;;;;;;;;;8.99;71.10;101593.98;1744782;81;20369;-76
2023/01/03 05:08:37;;;;;;;;;;;;;;;9.00;71.13;101592.70;1745859;81;20201;-76
2023/01/03 05:11:05;;;;;;;;;;;;;;;9.03;71.21;101591.85;1741898;80;20192;-76
2023/01/03 05:13:32;;;;;;;;;;;;;;;9.03;71.26;101600.88;1745345;81;20202;-76
2023/01/03 05:16:10;;;;;;;;;;;;;;;9.01;71.25;101606.03;1743672;80;21709;-76
2023/01/03 05:18:37;;;;;;;;;;;;;;;8.98;71.07;101603.43;1744083;81;21134;-76
2023/01/03 05:26:38;;;;;;;;;;;;;;;8.80;71.20;101616.23;1758831;80;20237;-76
2023/01/03 05:29:05;;;;;;;;;;;;;;;8.79;71.21;101623.53;1760336;79;21092;-76
2023/01/03 05:31:31;;;;;;;;;;;;;;;8.77;71.19;101630.39;1739252;81;20547;-74
2023/01/03 05:33:58;;;;;;;;;;;;;;;8.72;71.10;101629.48;1707029;81;613977;-74
2023/01/03 05:36:24;;;;;;;;;;;;;;;8.68;71.12;101632.89;1655023;84;20169;-74
2023/01/03 05:38:50;;;;;;;;;;;;;;;8.66;71.11;101637.17;1668766;83;20174;-74
2023/01/03 05:41:58;;;;;;;;;;;;;;;8.63;71.17;101638.88;1668406;83;21044;-74
2023/01/03 05:43:47;;;;;;;;;;;;;;;8.63;71.15;101644.03;1638891;85;20212;-75
2023/01/03 05:46:13;;;;;;;;;;;;;;;8.62;71.15;101646.17;1668640;83;20502;-74
2023/01/03 05:48:39;;;;;;;;;;;;;;;8.64;71.13;101647.47;1669093;83;20157;-74
2023/01/03 05:51:06;;;;;;;;;;;;;;;8.61;71.08;101653.47;1643275;84;20565;-74
2023/01/03 05:53:32;;;;;;;;;;;;;;;8.58;71.06;101653.86;1653583;84;21583;-74
2023/01/03 05:56:01;;;;;;;;;;;;;;;8.54;71.03;101653.40;1667654;83;20442;-74
2023/01/03 05:58:28;;;;;;;;;;;;;;;8.48;70.98;101659.36;1644043;85;20109;-74
2023/01/03 06:00:54;;;;;;;;;;;;;;;8.47;71.06;101665.79;1667410;83;20139;-74
2023/01/03 06:03:20;;;;;;;;;;;;;;;8.45;71.00;101668.35;1665459;83;20503;-74
2023/01/03 06:05:46;;;;;;;;;;;;;;;8.41;71.01;101675.61;1668588;84;20985;-74
2023/01/03 06:08:12;;;;;;;;;;;;;;;8.40;70.96;101675.59;1671980;83;20138;-74
2023/01/03 06:10:39;;;;;;;;;;;;;;;8.35;70.97;101680.70;1666599;83;20451;-74
2023/01/03 06:13:06;;;;;;;;;;;;;;;8.33;70.96;101683.69;1643638;85;20173;-74
2023/01/03 06:15:32;;;;;;;;;;;;;;;8.29;70.93;101680.64;1639676;85;20524;-74
2023/01/03 06:17:59;;;;;;;;;;;;;;;8.26;70.94;101681.89;1640059;85;20989;-74
2023/01/03 06:20:26;;;;;;;;;;;;;;;8.23;70.90;101684.44;1668647;83;20119;-74
2023/01/03 06:22:53;;;;;;;;;;;;;;;8.20;70.85;101688.27;1668547;82;20152;-74
2023/01/03 06:25:19;;;;;;;;;;;;;;;8.17;70.86;101698.12;1642710;85;20434;-74
2023/01/03 06:27:45;;;;;;;;;;;;;;;8.17;70.85;101700.70;1663998;84;20108;-74
2023/01/03 06:30:12;;;;;;;;;;;;;;;8.15;70.78;101706.67;1669566;84;21050;-74
2023/01/03 06:32:38;;;;;;;;;;;;;;;8.13;70.79;101707.08;1665516;84;20177;-74
2023/01/03 06:35:05;;;;;;;;;;;;;;;8.10;70.76;101714.77;1634195;85;20163;-75
2023/01/03 06:37:31;;;;;;;;;;;;;;;8.06;70.71;101709.14;1664895;84;20124;-75
2023/01/03 06:39:57;;;;;;;;;;;;;;;8.00;70.68;101717.66;1639986;85;20176;-75
2023/01/03 06:42:38;;;;;;;;;;;;;;;7.96;70.72;101723.62;1646373;85;21074;-75
2023/01/03 06:53:20;;;;;;;;;;;;;;;7.82;70.69;101738.89;1671935;84;20144;-75
2023/01/03 06:55:46;;;;;;;;;;;;;;;7.80;70.69;101741.87;1645786;85;21761;-75
2023/01/03 06:58:13;;;;;;;;;;;;;;;7.80;70.73;101743.16;1668153;84;20165;-75
2023/01/03 07:00:40;;;;;;;;;;;;;;;7.79;70.73;101748.31;1669956;84;20137;-75
2023/01/03 07:03:07;;;;;;;;;;;;;;;7.78;70.75;101755.17;1670229;84;20501;-74
2023/01/03 07:05:33;;;;;;;;;;;;;;;7.79;70.73;101760.77;1668087;84;20398;-74
2023/01/03 07:07:59;;;;;;;;;;;;;;;7.77;70.66;101762.45;1678143;83;21865;-74
2023/01/03 07:10:25;;;;;;;;;;;;;;;7.74;70.65;101770.55;1673089;85;20133;-74
2023/01/03 07:15:28;;;;;;;;;;;;;;;7.64;70.63;101766.98;1592269;88;20182;-74
2023/01/03 07:17:55;;;;;;;;;;;;;;;7.62;70.67;101776.39;1680957;84;20126;-74
2023/01/03 07:20:21;;;;;;;;;;;;;;;7.60;70.67;101778.95;1675201;83;21783;-74
2023/01/03 07:22:47;;;;;;;;;;;;;;;7.57;70.64;101780.19;1672590;83;20562;-74
2023/01/03 07:25:14;;;;;;;;;;;;;;;7.52;70.57;101783.11;1672556;84;20563;-74
2023/01/03 07:27:40;;;;;;;;;;;;;;;7.50;70.59;101786.08;1669277;83;20499;-74
2023/01/03 07:30:07;;;;;;;;;;;;;;;7.48;70.57;101788.19;1643987;85;20118;-74
2023/01/03 07:32:33;;;;;;;;;;;;;;;7.45;70.59;101791.58;1647781;85;21694;-74
2023/01/03 07:35:00;;;;;;;;;;;;;;;7.46;70.60;101793.73;1681635;83;20157;-74
2023/01/03 07:37:27;;;;;;;;;;;;;;;7.42;70.48;101798.38;1680339;83;20520;-75
2023/01/03 07:39:53;;;;;;;;;;;;;;;7.40;70.44;101793.63;1681100;83;20412;-75
2023/01/03 07:45:05;;;;;;;;;;;;;;;7.37;70.56;101806.45;1686650;83;21237;-74
2023/01/03 07:47:31;;;;;;;;;;;;;;;7.39;70.52;101812.48;1680422;83;20450;-74
2023/01/03 07:49:57;;;;;;;;;;;;;;;7.37;70.49;101809.89;1684223;83;20122;-74
2023/01/03 07:52:23;;;;;;;;;;;;;;;7.37;70.55;101818.03;1650185;85;20181;-74
2023/01/03 07:54:49;;;;;;;;;;;;;;;7.38;70.59;101818.47;1654060;85;20443;-74
2023/01/03 07:57:16;;;;;;;;;;;;;;;7.50;70.73;101819.95;1671611;84;21715;-74
2023/01/03 07:59:42;;;;;;;;;;;;;;;7.67;70.71;101817.65;1681674;83;20096;-74
2023/01/03 08:02:08;;;;;;;;;;;;;;;7.73;70.65;101823.76;1681944;83;20566;-74
2023/01/03 08:04:34;;;;;;;;;;;;;;;7.76;70.67;101826.37;1652704;85;20410;-74
2023/01/03 08:07:00;;;;;;;;;;;;;;;7.79;70.73;101828.13;1674347;83;20163;-74
2023/01/03 08:14:55;;;;;;;;;;;;;;;7.89;70.79;101839.84;1681920;84;20433;-74
2023/01/03 08:17:21;;;;;;;;;;;;;;;7.88;70.78;101850.13;1681454;83;20137;-74
2023/01/03 08:19:47;;;;;;;;;;;;;;;7.85;70.79;101850.08;1649422;85;20142;-74
2023/01/03 08:22:13;;;;;;;;;;;;;;;7.79;70.75;101852.59;1654216;85;21079;-74
2023/01/03 08:24:40;;;;;;;;;;;;;;;7.75;70.79;101855.97;1647527;85;20441;-74
2023/01/03 08:27:06;;;;;;;;;;;;;;;7.71;70.83;101860.63;1675244;83;20169;-74
2023/01/03 08:29:32;;;;;;;;;;;;;;;7.66;70.78;101868.27;1659495;84;20102;-74
2023/01/03 08:32:01;;;;;;;;;;;;;;;7.60;70.81;101868.17;1632853;85;20131;-74
2023/01/03 08:34:30;;;;;;;;;;;;;;;7.58;70.89;101873.71;1636125;85;21063;-74
2023/01/03 08:37:02;;;;;;;;;;;;;;;7.55;70.93;101871.95;1638264;85;20172;-74
2023/01/03 08:39:34;;;;;;;;;;;;;;;7.52;70.89;101874.48;1667796;85;20492;-74
2023/01/03 08:42:02;;;;;;;;;;;;;;;7.50;70.90;101881.30;1670968;85;20158;-74
2023/01/03 08:44:28;;;;;;;;;;;;;;;7.45;70.89;101873.92;1667358;84;20124;-74
2023/01/03 08:46:57;;;;;;;;;;;;;;;7.43;70.90;101866.59;1665974;84;21099;-74
2023/01/03 08:49:23;;;;;;;;;;;;;;;7.39;70.90;101866.52;1642619;85;20224;-74
2023/01/03 08:51:49;;;;;;;;;;;;;;;7.37;70.88;101877.20;1637318;85;20199;-74
2023/01/03 08:54:15;;;;;;;;;;;;;;;7.35;70.93;101882.75;1640739;85;20656;-74
2023/01/03 08:56:41;;;;;;;;;;;;;;;7.32;70.87;101884.84;1676076;84;20165;-74
2023/01/03 08:59:07;;;;;;;;;;;;;;;7.28;70.93;101886.91;1669782;84;20695;-74
2023/01/03 09:01:33;;;;;;;;;;;;;;;7.25;70.96;101886.89;1673819;84;20730;-74
2023/01/03 09:04:00;;;;;;;;;;;;;;;7.25;70.94;101892.04;1654223;85;20333;-74
2023/01/03 09:06:26;;;;;;;;;;;;;;;7.22;70.92;101892.84;1674098;82;20248;-74
2023/01/03 09:08:52;;;;;;;;;;;;;;;7.20;70.94;101893.23;1671131;84;20592;-74
2023/01/03 09:11:18;;;;;;;;;;;;;;;7.19;70.93;101899.22;1667468;84;21865;-74
2023/01/03 09:13:44;;;;;;;;;;;;;;;7.16;70.90;101900.87;1648562;85;20208;-74
2023/01/03 09:16:12;;;;;;;;;;;;;;;7.11;70.90;101900.78;1643280;85;20192;-74
2023/01/03 09:18:39;;;;;;;;;;;;;;;7.10;70.93;101906.77;1643585;85;20561;-74
2023/01/03 09:21:06;;;;;;;;;;;;;;;7.09;70.97;101914.03;1667169;84;20188;-74
2023/01/03 09:23:33;;;;;;;;;;;;;;;7.13;70.98;101922.67;1674283;84;21797;-74
2023/01/03 09:26:00;;;;;;;;;;;;;;;7.13;70.98;101913.67;1681505;84;20571;-74
2023/01/03 09:28:26;;;;;;;;;;;;;;;7.12;70.94;101911.52;1650964;85;20198;-74
2023/01/03 09:30:53;;;;;;;;;;;;;;;7.11;70.91;101910.20;1651582;85;20206;-74
2023/01/03 09:33:19;;;;;;;;;;;;;;;7.11;70.95;101922.65;1686539;83;20482;-74
2023/01/03 09:35:45;;;;;;;;;;;;;;;7.15;71.01;101921.87;1677970;83;21825;-74
2023/01/03 09:38:11;;;;;;;;;;;;;;;7.18;70.95;101924.92;1634713;85;20205;-74
2023/01/03 09:40:40;;;;;;;;;;;;;;;7.18;70.82;101931.34;1644882;85;20244;-74
2023/01/03 09:43:18;;;;;;;;;;;;;;;7.17;70.83;101930.48;1647595;85;20213;-74
2023/01/03 09:45:51;;;;;;;;;;;;;;;7.18;70.86;101940.35;1637550;85;20674;-74
2023/01/03 09:48:19;;;;;;;;;;;;;;;7.17;70.83;101938.20;1652943;85;21146;-74
2023/01/03 09:50:46;;;;;;;;;;;;;;;7.16;70.82;101932.61;1650257;85;20279;-74
2023/01/03 10:05:04;;;;;;;;;;;;;;;7.21;70.86;101934.84;1638127;85;20523;-74
2023/01/03 10:07:46;;;;;;;;;;;;;;;7.24;70.80;101940.05;1668698;83;20180;-74
2023/01/03 10:10:15;;;;;;;;;;;;;;;7.26;70.87;101938.37;1668232;83;20231;-74
2023/01/03 10:12:55;;;;;;;;;;;;;;;7.30;70.84;101945.28;1638561;85;20204;-74
2023/01/03 10:15:27;;;;;;;;;;;;;;;7.33;70.79;101939.33;1634987;85;21207;-74
2023/01/03 10:18:05;;;;;;;;;;;;;;;7.38;70.77;101934.27;1643142;85;20459;-74
2023/01/03 10:20:49;;;;;;;;;;;;;;;7.44;70.79;101943.38;1644508;85;20179;-74
2023/01/03 10:23:15;;;;;;;;;;;;;;;7.52;70.80;101944.39;1648342;85;20718;-74
2023/01/03 10:25:44;;;;;;;;;;;;;;;7.62;70.82;101943.71;1643074;85;20203;-74
2023/01/03 10:28:19;;;;;;;;;;;;;;;7.71;70.81;101947.73;1639815;85;21830;-73
2023/01/03 10:31:08;;;;;;;;;;;;;;;7.74;70.64;101945.63;1640924;85;20481;-73
2023/01/03 10:33:46;;;;;;;;;;;;;;;7.77;70.62;101945.27;1641007;85;20246;-73
2023/01/03 10:36:13;;;;;;;;;;;;;;;7.76;70.59;101949.97;1671979;85;20191;-73
2023/01/03 10:38:41;;;;;;;;;;;;;;;7.77;70.57;101950.41;1670137;83;20536;-74
2023/01/03 10:41:32;;;;;;;;;;;;;;;7.73;70.52;101948.63;1645266;85;21862;-74
2023/01/03 10:44:00;;;;;;;;;;;;;;;7.69;70.45;101946.84;1641520;85;20210;-74
2023/01/03 10:46:28;;;;;;;;;;;;;;;7.64;70.36;101947.18;1645724;85;20280;-74
2023/01/03 10:48:57;;;;;;;;;;;;;;;7.58;70.42;101949.22;1646100;85;20241;-74
2023/01/03 10:51:34;;;;;;;;;;;;;;;7.49;70.35;101946.91;1625023;85;20188;-74
2023/01/03 10:54:04;;;;;;;;;;;;;;;7.42;70.39;101948.92;1637626;85;21156;-74
2023/01/03 10:56:30;;;;;;;;;;;;;;;7.37;70.45;101942.41;1637112;85;20631;-74
2023/01/03 10:59:18;;;;;;;;;;;;;;;7.31;70.40;101950.88;1631863;85;20231;-74
2023/01/03 11:01:56;;;;;;;;;;;;;;;7.24;70.70;101947.77;1644871;85;20200;-74
2023/01/03 11:04:22;;;;;;;;;;;;;;;7.18;70.52;101947.65;1630935;85;20217;-74
2023/01/03 11:06:58;;;;;;;;;;;;;;;7.12;70.44;101945.37;1675390;83;21176;-74
2023/01/03 11:09:31;;;;;;;;;;;;;;;7.08;70.47;101951.30;1666327;83;20194;-74
2023/01/03 11:12:03;;;;;;;;;;;;;;;7.02;70.46;101953.33;1640614;85;20205;-74
2023/01/03 11:14:29;;;;;;;;;;;;;;;6.98;70.46;101943.81;1638086;85;20185;-74
2023/01/03 11:17:04;;;;;;;;;;;;;;;6.95;70.41;101951.47;1666261;85;20493;-74
2023/01/03 11:19:32;;;;;;;;;;;;;;;6.92;70.40;101948.42;1670844;83;20706;-74
2023/01/03 11:22:04;;;;;;;;;;;;;;;6.90;70.42;101950.09;1669581;83;20192;-74
2023/01/03 11:24:37;;;;;;;;;;;;;;;6.87;70.45;101942.31;1644429;85;20181;-74
2023/01/03 11:27:28;;;;;;;;;;;;;;;6.89;70.46;101942.34;1640983;85;20180;-74
2023/01/03 11:30:29;;;;;;;;;;;;;;;6.88;70.39;101937.63;1641221;85;20197;-73
2023/01/03 11:33:05;;;;;;;;;;;;;;;6.86;70.41;101942.28;1623554;86;22240;-73
2023/01/03 11:35:52;;;;;;;;;;;;;;;6.84;70.49;101923.39;1668841;83;20185;-73
2023/01/03 11:38:31;;;;;;;;;;;;;;;6.80;70.34;101939.58;1681334;83;20228;-73
2023/01/03 11:41:04;;;;;;;;;;;;;;;6.77;70.37;101938.23;1645543;85;20199;-73
2023/01/03 11:43:50;;;;;;;;;;;;;;;6.75;70.35;101934.80;1672607;84;20218;-74
2023/01/03 11:46:37;;;;;;;;;;;;;;;6.75;70.38;101938.66;1664816;84;21056;-74
2023/01/03 11:49:18;;;;;;;;;;;;;;;6.74;70.38;101939.07;1654198;84;20227;-74
2023/01/03 11:52:08;;;;;;;;;;;;;;;6.75;70.34;101942.09;1668236;84;20468;-74
2023/01/03 11:54:39;;;;;;;;;;;;;;;6.75;70.38;101941.22;1662470;84;20201;-74
2023/01/03 11:57:11;;;;;;;;;;;;;;;6.78;70.37;101941.25;1669951;84;20216;-74
2023/01/03 11:59:41;;;;;;;;;;;;;;;6.81;70.44;101936.17;1661735;84;21076;-74
2023/01/03 12:02:42;;;;;;;;;;;;;;;6.86;70.36;101939.71;1661163;84;20192;-74
2023/01/03 12:05:39;;;;;;;;;;;;;;;6.88;70.38;101935.05;1678498;83;20507;-74
2023/01/03 12:08:12;;;;;;;;;;;;;;;6.91;70.33;101935.53;1648175;85;20214;-74
2023/01/03 12:11:14;;;;;;;;;;;;;;;6.94;70.27;101942.02;1646723;85;20177;-74
2023/01/03 12:13:50;;;;;;;;;;;;;;;6.95;70.33;101934.75;1677876;83;21133;-74
2023/01/03 12:16:22;;;;;;;;;;;;;;;6.98;70.32;101938.67;1673504;83;20187;-74
2023/01/03 12:18:59;;;;;;;;;;;;;;;7.01;70.29;101933.59;1653798;85;20183;-74
2023/01/03 12:21:32;;;;;;;;;;;;;;;7.06;70.33;101931.98;1627754;82;5001236;-74
2023/01/03 12:24:05;;;;;;;;;;;;;;;7.11;70.35;101935.51;1679433;83;20195;-74
2023/01/03 12:26:31;;;;;;;;;;;;;;;7.14;70.29;101931.70;1646966;85;21554;-74
2023/01/03 12:29:00;;;;;;;;;;;;;;;7.17;70.22;101930.48;1650628;85;20560;-74
2023/01/03 12:31:48;;;;;;;;;;;;;;;7.19;70.19;101939.52;1647879;85;20155;-74
2023/01/03 12:34:18;;;;;;;;;;;;;;;7.20;70.16;101936.11;1638228;85;20214;-74
2023/01/03 12:37:07;;;;;;;;;;;;;;;7.23;70.21;101928.45;1634281;85;20240;-74
2023/01/03 12:39:55;;;;;;;;;;;;;;;7.26;70.16;101929.37;1634535;85;21969;-76
2023/01/03 12:42:33;;;;;;;;;;;;;;;7.30;70.10;101923.83;1638031;85;20245;-75
2023/01/03 12:45:09;;;;;;;;;;;;;;;7.36;69.97;101934.66;1637387;85;20236;-76
2023/01/03 12:47:39;;;;;;;;;;;;;;;7.42;70.14;101933.06;1640296;85;20300;-76
2023/01/03 12:50:17;;;;;;;;;;;;;;;7.54;70.13;101936.27;1634226;85;20523;-75
2023/01/03 12:52:46;;;;;;;;;;;;;;;7.62;69.92;101938.56;1637371;85;21097;-76
2023/01/03 12:55:34;;;;;;;;;;;;;;;7.63;69.97;101933.86;1667129;84;20251;-76
2023/01/03 12:58:07;;;;;;;;;;;;;;;7.69;69.98;101934.39;1646858;85;20181;-74
2023/01/03 13:00:55;;;;;;;;;;;;;;;7.74;70.00;101935.33;1634153;85;20213;-74
2023/01/03 13:03:30;;;;;;;;;;;;;;;7.75;69.89;101939.64;1642692;85;20265;-74
2023/01/03 13:05:59;;;;;;;;;;;;;;;7.77;69.82;101944.39;1637275;85;21038;-74
2023/01/03 13:08:44;;;;;;;;;;;;;;;7.81;69.92;101943.16;1634872;85;20207;-74
2023/01/03 13:11:29;;;;;;;;;;;;;;;7.85;69.74;101942.78;1651977;85;20211;-74
2023/01/03 13:13:59;;;;;;;;;;;;;;;7.86;69.75;101937.66;1644129;85;20207;-74
2023/01/03 13:16:37;;;;;;;;;;;;;;;7.91;69.77;101937.73;1635749;85;20535;-74
2023/01/03 13:19:25;;;;;;;;;;;;;;;7.95;69.80;101944.25;1663184;84;21834;-74
2023/01/03 13:22:01;;;;;;;;;;;;;;;7.99;69.77;101946.45;1664782;84;20555;-74
2023/01/03 13:24:45;;;;;;;;;;;;;;;8.01;69.83;101955.07;1667513;84;20221;-74
2023/01/03 13:27:20;;;;;;;;;;;;;;;7.98;69.67;101952.02;1632061;85;20402;-74
2023/01/03 13:29:57;;;;;;;;;;;;;;;7.88;69.48;101957.00;1643767;85;20208;-74
2023/01/03 13:32:26;;;;;;;;;;;;;;;7.79;69.60;101955.17;1625022;86;21856;-74
2023/01/03 13:34:59;;;;;;;;;;;;;;;7.70;69.57;101957.59;1671089;85;20228;-74
2023/01/03 13:37:37;;;;;;;;;;;;;;;7.61;69.57;101959.58;1675218;83;20185;-74
2023/01/03 13:40:24;;;;;;;;;;;;;;;7.54;69.59;101959.02;1651974;85;20190;-74
2023/01/03 13:43:03;;;;;;;;;;;;;;;7.48;69.53;101961.48;1647099;85;20197;-74
2023/01/03 13:45:32;;;;;;;;;;;;;;;7.43;69.53;101960.95;1650266;85;21842;-74
2023/01/03 13:48:11;;;;;;;;;;;;;;;7.34;69.55;101958.20;1683628;83;20220;-74
2023/01/03 13:50:37;;;;;;;;;;;;;;;7.29;69.54;101965.83;1660501;85;20244;-75
2023/01/03 13:53:13;;;;;;;;;;;;;;;7.21;69.50;101964.43;1680126;83;20220;-75
2023/01/03 13:55:47;;;;;;;;;;;;;;;7.16;69.47;101972.47;1677521;83;20600;-75
2023/01/03 13:58:38;;;;;;;;;;;;;;;7.11;69.44;101967.66;1672647;83;21061;-75
2023/01/03 14:01:08;;;;;;;;;;;;;;;7.09;69.50;101968.46;1647896;85;20228;-74
2023/01/03 14:03:57;;;;;;;;;;;;;;;7.03;69.43;101967.05;1652848;85;20203;-74
2023/01/03 14:06:30;;;;;;;;;;;;;;;6.97;69.46;101963.52;1642108;85;20783;-74